Time;durP1;ratioP1;P1;durP2;ratioP2;P2;SDS_P1;SDS_P2;PMS_P1;PMS_P2;Temp;Humidity;BMP_temperature;BMP_pressure;BME280_temperature;BME280_humidity;BME280_pressure;Samples;Min_cycle;Max_cycle;Signal;HPM_P1;HPM_P2
2022/01/31 00:00:48;;;;;;;38.78;11.02;;;5.80;99.90;;;;;;6150129;23;20005;-88
2022/01/31 00:03:13;;;;;;;34.60;9.32;;;5.80;99.90;;;;;;6151906;23;20009;-87
2022/01/31 00:05:39;;;;;;;39.33;9.88;;;5.80;99.90;;;;;;6150559;23;20006;-88
2022/01/31 00:08:05;;;;;;;34.85;10.23;;;5.80;99.90;;;;;;6150511;23;20024;-88
2022/01/31 00:10:31;;;;;;;33.28;9.70;;;5.80;99.90;;;;;;6150425;23;20002;-87
2022/01/31 00:13:06;;;;;;;28.15;9.90;;;5.80;99.90;;;;;;6152491;23;20009;-87
2022/01/31 00:15:38;;;;;;;31.77;8.85;;;5.90;99.90;;;;;;6150426;23;20006;-88
2022/01/31 00:18:04;;;;;;;38.13;9.93;;;6.00;99.90;;;;;;6150404;23;20036;-89
2022/01/31 00:20:30;;;;;;;40.35;9.75;;;6.00;99.90;;;;;;6151365;23;20343;-88
2022/01/31 00:22:56;;;;;;;34.03;9.10;;;6.10;99.90;;;;;;6152663;23;20001;-87
2022/01/31 00:25:22;;;;;;;31.73;9.88;;;6.10;99.90;;;;;;6151979;23;20060;-88
2022/01/31 00:27:47;;;;;;;31.25;8.68;;;6.10;99.90;;;;;;6149980;23;20093;-89
2022/01/31 00:30:14;;;;;;;28.15;8.40;;;6.10;99.90;;;;;;6150339;23;20006;-87
2022/01/31 00:32:41;;;;;;;33.08;9.70;;;6.00;99.90;;;;;;6150266;23;20002;-89
2022/01/31 00:35:07;;;;;;;29.48;9.25;;;6.10;99.90;;;;;;6150411;23;20446;-88
2022/01/31 00:37:33;;;;;;;38.50;9.30;;;6.00;99.90;;;;;;6150220;23;20010;-87
2022/01/31 00:39:58;;;;;;;25.42;8.52;;;6.00;99.90;;;;;;6152309;23;20383;-88
2022/01/31 00:42:26;;;;;;;23.88;8.07;;;6.00;99.90;;;;;;6150538;23;20013;-88
2022/01/31 00:44:59;;;;;;;28.73;9.75;;;6.00;99.90;;;;;;6149887;23;20218;-88
2022/01/31 00:47:27;;;;;;;33.70;9.75;;;6.00;99.90;;;;;;6149811;23;20017;-87
2022/01/31 00:50:10;;;;;;;;;;;6.00;99.90;;;;;;6152256;23;20005;-87
2022/01/31 00:52:38;;;;;;;31.67;9.27;;;6.00;99.90;;;;;;6150284;23;19907;-89
2022/01/31 00:55:04;;;;;;;25.95;8.63;;;5.90;99.90;;;;;;6150009;23;20012;-87
2022/01/31 00:57:30;;;;;;;30.38;9.75;;;5.80;99.90;;;;;;6151181;23;20006;-87
2022/01/31 00:59:56;;;;;;;25.83;9.40;;;5.80;99.90;;;;;;6150563;23;20010;-88
2022/01/31 01:02:22;;;;;;;27.73;9.13;;;5.80;99.90;;;;;;6150540;23;20339;-88
2022/01/31 01:04:49;;;;;;;27.38;9.38;;;5.90;99.90;;;;;;6150258;23;20009;-87
2022/01/31 01:07:15;;;;;;;26.52;9.23;;;6.00;99.90;;;;;;6150246;23;21875;-88
2022/01/31 01:09:44;;;;;;;30.70;9.27;;;6.10;99.90;;;;;;6151143;23;20010;-88
2022/01/31 01:12:12;;;;;;;30.88;9.05;;;6.20;99.90;;;;;;6152534;23;20439;-89
2022/01/31 01:14:38;;;;;;;30.63;10.10;;;6.20;99.90;;;;;;6152388;23;20016;-89
2022/01/31 01:17:04;;;;;;;28.83;9.27;;;6.30;99.90;;;;;;6153837;23;20080;-89
2022/01/31 01:19:29;;;;;;;30.10;8.85;;;6.30;99.90;;;;;;6153139;23;20032;-89
2022/01/31 01:21:55;;;;;;;35.08;9.75;;;6.30;99.90;;;;;;6152129;23;20014;-88
2022/01/31 01:24:23;;;;;;;29.88;9.38;;;6.40;99.90;;;;;;6153905;23;20008;-89
2022/01/31 01:26:49;;;;;;;32.08;9.00;;;6.40;99.90;;;;;;6152929;23;20080;-89
2022/01/31 01:29:16;;;;;;;32.75;9.45;;;6.40;99.90;;;;;;6152290;23;20056;-89
2022/01/31 01:31:44;;;;;;;27.20;8.90;;;6.40;99.90;;;;;;6151961;23;20002;-88
2022/01/31 01:34:10;;;;;;;33.13;9.27;;;6.50;99.90;;;;;;6152020;23;20006;-90
2022/01/31 01:36:35;;;;;;;27.42;9.38;;;6.50;99.90;;;;;;6152242;23;20017;-89
2022/01/31 01:39:02;;;;;;;28.23;8.48;;;6.50;99.90;;;;;;6153109;23;20006;-89
2022/01/31 01:41:27;;;;;;;26.88;9.38;;;6.50;99.90;;;;;;6152504;23;20005;-89
2022/01/31 01:43:53;;;;;;;29.42;8.65;;;6.60;99.90;;;;;;6152185;23;20012;-90
2022/01/31 01:46:19;;;;;;;23.05;8.40;;;6.60;99.90;;;;;;6152386;23;20028;-89
2022/01/31 01:48:45;;;;;;;24.52;8.40;;;6.70;99.90;;;;;;6152113;23;20100;-88
2022/01/31 01:51:11;;;;;;;27.92;7.97;;;;;;;;;;6151930;23;19997;-88
2022/01/31 01:53:36;;;;;;;26.77;8.68;;;6.80;99.90;;;;;;6151990;23;20005;-89
2022/01/31 01:56:03;;;;;;;25.98;8.52;;;;;;;;;;6153149;23;20012;-91
2022/01/31 01:58:38;;;;;;;29.83;7.28;;;6.90;99.90;;;;;;6152073;23;20048;-89
2022/01/31 02:01:05;;;;;;;22.13;7.65;;;7.30;99.90;;;;;;6153260;23;20005;-89
2022/01/31 02:03:32;;;;;;;22.83;8.05;;;7.00;99.90;;;;;;6159311;23;20304;-89
2022/01/31 02:05:59;;;;;;;26.77;6.88;;;7.00;99.90;;;;;;6157916;23;20002;-88
2022/01/31 02:08:26;;;;;;;20.02;7.80;;;7.00;99.90;;;;;;6157748;23;20017;-88
2022/01/31 02:10:52;;;;;;;20.92;7.07;;;7.10;99.90;;;;;;6152724;23;20081;-88
2022/01/31 02:13:19;;;;;;;21.30;7.65;;;;;;;;;;6152060;23;20028;-89
2022/01/31 02:15:49;;;;;;;21.67;7.78;;;7.10;99.90;;;;;;6152236;23;20478;-88
2022/01/31 02:18:16;;;;;;;22.42;7.43;;;7.10;99.90;;;;;;6152099;23;20057;-90
2022/01/31 02:20:42;;;;;;;17.65;7.80;;;;;;;;;;6151857;23;20343;-89
2022/01/31 02:23:11;;;;;;;21.50;7.55;;;7.20;99.90;;;;;;6153382;23;20008;-88
2022/01/31 02:25:56;;;;;;;;;;;7.20;99.90;;;;;;6153094;23;20445;-88
2022/01/31 02:28:25;;;;;;;20.38;6.40;;;7.30;99.90;;;;;;6151303;23;19905;-88
2022/01/31 02:30:51;;;;;;;23.65;7.55;;;7.30;99.90;;;;;;6151235;23;20009;-89
2022/01/31 02:33:18;;;;;;;19.88;6.72;;;;;;;;;;6151376;23;20103;-87
2022/01/31 02:35:52;;;;;;;19.02;7.40;;;7.40;99.90;;;;;;6151726;23;20059;-88
2022/01/31 02:38:18;;;;;;;20.73;7.85;;;7.40;99.90;;;;;;6151018;23;20029;-88
2022/01/31 02:40:45;;;;;;;23.08;7.53;;;7.50;99.90;;;;;;6151312;23;20005;-89
2022/01/31 02:43:25;;;;;;;24.42;7.50;;;7.50;99.90;;;;;;6152147;23;20438;-89
2022/01/31 02:45:51;;;;;;;20.30;7.07;;;7.50;99.90;;;;;;6154324;23;20076;-89
2022/01/31 02:48:22;;;;;;;14.23;7.40;;;7.50;99.90;;;;;;6151677;23;20041;-90
2022/01/31 02:50:48;;;;;;;19.48;6.95;;;7.60;99.90;;;;;;6151529;23;20084;-90
2022/01/31 02:53:23;;;;;;;19.33;7.32;;;7.60;99.90;;;;;;6151378;23;20063;-89
2022/01/31 02:55:49;;;;;;;15.18;7.00;;;7.60;99.90;;;;;;6151289;23;20029;-91
2022/01/31 02:58:16;;;;;;;18.55;8.35;;;7.60;99.90;;;;;;6151435;23;20044;-90
2022/01/31 03:00:42;;;;;;;18.30;7.72;;;7.60;99.90;;;;;;6151436;23;20001;-90
2022/01/31 03:03:09;;;;;;;16.00;8.00;;;7.60;99.90;;;;;;6152009;23;20021;-89
2022/01/31 03:05:35;;;;;;;20.92;8.63;;;7.60;99.90;;;;;;6151871;23;20005;-88
2022/01/31 03:08:02;;;;;;;21.08;8.23;;;7.60;99.90;;;;;;6150909;23;20100;-89
2022/01/31 03:10:28;;;;;;;21.85;8.18;;;7.60;99.90;;;;;;6150965;23;20006;-88
2022/01/31 03:12:53;;;;;;;19.02;8.38;;;7.60;99.90;;;;;;6151193;23;20534;-88
2022/01/31 03:15:19;;;;;;;21.58;9.00;;;7.60;99.90;;;;;;6150445;23;20347;-87
2022/01/31 03:17:50;;;;;;;18.90;7.88;;;7.70;99.90;;;;;;6151198;23;20009;-89
2022/01/31 03:20:18;;;;;;;14.73;8.20;;;7.60;99.90;;;;;;6151329;23;20085;-90
2022/01/31 03:22:44;;;;;;;15.43;8.27;;;7.60;99.90;;;;;;6151395;23;20465;-89
2022/01/31 03:25:10;;;;;;;15.80;7.07;;;7.70;99.90;;;;;;6151697;23;20013;-89
2022/01/31 03:27:37;;;;;;;14.65;7.55;;;7.70;99.90;;;;;;6151843;23;20020;-90
2022/01/31 03:30:10;;;;;;;18.38;8.07;;;7.70;99.90;;;;;;6151418;23;20059;-89
2022/01/31 03:32:36;;;;;;;19.05;8.02;;;7.70;99.90;;;;;;6152303;23;20006;-90
2022/01/31 03:35:03;;;;;;;16.67;8.13;;;7.70;99.90;;;;;;6151013;23;20032;-89
2022/01/31 03:37:29;;;;;;;17.53;7.40;;;7.70;99.90;;;;;;6151058;23;20013;-90
2022/01/31 03:39:55;;;;;;;16.92;7.80;;;7.80;99.90;;;;;;6151245;23;20010;-90
2022/01/31 03:42:21;;;;;;;14.05;7.07;;;7.80;99.90;;;;;;6152988;23;20002;-89
2022/01/31 03:44:47;;;;;;;20.10;7.82;;;7.80;99.90;;;;;;6151021;23;20060;-90
2022/01/31 03:47:14;;;;;;;14.15;6.50;;;7.80;99.90;;;;;;6151099;23;20454;-89
2022/01/31 03:49:40;;;;;;;17.52;6.95;;;7.80;99.90;;;;;;6151896;23;20010;-91
2022/01/31 03:52:06;;;;;;;23.52;7.25;;;7.80;99.90;;;;;;6150975;23;20009;-89
2022/01/31 03:54:32;;;;;;;24.00;7.20;;;7.80;99.90;;;;;;6151157;23;20590;-89
2022/01/31 03:56:57;;;;;;;18.35;6.72;;;7.80;99.90;;;;;;6151032;23;20060;-89
2022/01/31 03:59:23;;;;;;;20.90;6.60;;;7.90;99.90;;;;;;6151507;23;20009;-90
2022/01/31 04:01:49;;;;;;;22.75;6.82;;;7.90;99.90;;;;;;6151149;23;20028;-91
2022/01/31 04:04:14;;;;;;;16.20;6.47;;;7.80;99.90;;;;;;6152499;23;20009;-90
2022/01/31 04:06:41;;;;;;;14.90;6.53;;;7.90;99.90;;;;;;6152264;23;20124;-90
2022/01/31 04:09:07;;;;;;;15.45;6.72;;;7.90;99.90;;;;;;6151462;23;20020;-89
2022/01/31 04:11:33;;;;;;;21.85;6.88;;;8.00;99.90;;;;;;6151207;23;20019;-90
2022/01/31 04:13:59;;;;;;;20.77;6.45;;;8.00;99.90;;;;;;6150864;23;20037;-90
2022/01/31 04:16:25;;;;;;;19.60;5.18;;;;;;;;;;6151100;23;20005;-91
2022/01/31 04:18:51;;;;;;;16.17;5.22;;;8.00;99.90;;;;;;6151055;23;20088;-91
2022/01/31 04:21:17;;;;;;;27.33;4.18;;;8.10;99.90;;;;;;6150900;23;20009;-89
2022/01/31 04:23:46;;;;;;;29.27;3.05;;;8.30;99.90;;;;;;6151391;23;20443;-89
2022/01/31 04:26:14;;;;;;;15.23;2.63;;;8.40;99.90;;;;;;6151348;23;20021;-89
2022/01/31 04:28:44;;;;;;;16.42;4.03;;;8.50;99.90;;;;;;6151313;23;20017;-89
2022/01/31 04:33:41;;;;;;;30.88;2.88;;;8.70;99.90;;;;;;6153025;23;20502;-89
2022/01/31 04:36:07;;;;;;;26.90;3.38;;;8.70;99.90;;;;;;6153039;23;20069;-89
2022/01/31 04:38:34;;;;;;;20.35;3.67;;;;;;;;;;6156794;23;20006;-88
2022/01/31 04:41:00;;;;;;;28.25;3.33;;;8.70;99.90;;;;;;6151881;23;20455;-89
2022/01/31 04:43:25;;;;;;;21.08;2.50;;;8.70;99.90;;;;;;6152851;23;20017;-88
2022/01/31 04:45:53;;;;;;;22.02;3.25;;;8.70;99.90;;;;;;6149925;23;20005;-88
2022/01/31 04:48:20;;;;;;;20.30;2.93;;;8.70;99.90;;;;;;6151292;23;20009;-88
2022/01/31 04:50:46;;;;;;;17.08;2.35;;;8.80;99.90;;;;;;6150510;23;20245;-88
2022/01/31 04:53:13;;;;;;;24.35;3.30;;;8.60;99.90;;;;;;6152847;23;20023;-89
2022/01/31 04:55:39;;;;;;;21.55;3.03;;;8.70;99.90;;;;;;6150155;23;20092;-91
2022/01/31 04:58:06;;;;;;;20.02;2.72;;;8.70;99.90;;;;;;6150811;23;20277;-90
2022/01/31 05:00:31;;;;;;;24.33;3.38;;;8.60;99.90;;;;;;6150090;23;20005;-87
2022/01/31 05:02:57;;;;;;;10.32;2.22;;;8.60;99.90;;;;;;6149587;23;20513;-88
2022/01/31 05:05:23;;;;;;;25.92;3.03;;;8.60;99.90;;;;;;6149951;23;20009;-87
2022/01/31 05:07:51;;;;;;;28.50;3.53;;;8.50;99.90;;;;;;6149854;23;20067;-89
2022/01/31 05:10:17;;;;;;;20.80;3.35;;;8.40;99.90;;;;;;6149959;23;20009;-88
2022/01/31 05:12:45;;;;;;;22.77;3.65;;;8.40;99.90;;;;;;6151859;23;20009;-88
2022/01/31 05:15:13;;;;;;;38.60;3.88;;;8.30;99.90;;;;;;6150541;23;20001;-90
2022/01/31 05:17:39;;;;;;;24.05;4.38;;;8.20;99.90;;;;;;6150296;23;20006;-89
2022/01/31 05:20:05;;;;;;;23.88;3.30;;;8.20;99.90;;;;;;6150662;23;20045;-88
2022/01/31 05:22:31;;;;;;;25.38;3.50;;;8.20;99.90;;;;;;6150361;23;20009;-88
2022/01/31 05:24:57;;;;;;;30.23;3.50;;;8.10;99.90;;;;;;6151184;23;20005;-88
2022/01/31 05:27:22;;;;;;;22.73;3.63;;;7.90;99.90;;;;;;6149930;23;20010;-87
2022/01/31 05:29:48;;;;;;;25.98;4.00;;;7.90;99.90;;;;;;6149524;23;20354;-87
2022/01/31 05:32:14;;;;;;;22.77;3.28;;;7.80;99.90;;;;;;6150601;23;20002;-87
2022/01/31 05:34:39;;;;;;;20.25;3.00;;;7.80;99.90;;;;;;6149915;23;20013;-89
2022/01/31 05:37:05;;;;;;;17.83;2.30;;;7.70;99.90;;;;;;6150036;23;20126;-87
2022/01/31 05:39:31;;;;;;;19.92;3.28;;;7.70;99.30;;;;;;6150018;23;20012;-88
2022/01/31 05:41:57;;;;;;;19.85;2.60;;;7.70;99.10;;;;;;6151661;23;20001;-88
2022/01/31 05:44:24;;;;;;;25.08;3.35;;;7.70;99.10;;;;;;6149837;23;20056;-88
2022/01/31 05:46:51;;;;;;;26.27;3.17;;;7.70;98.90;;;;;;6149813;23;20320;-88
2022/01/31 05:49:16;;;;;;;21.00;3.25;;;7.70;99.40;;;;;;6151131;23;20017;-87
2022/01/31 05:52:15;;;;;;;;;;;;;;;;;;;;;
2022/01/31 05:54:51;;;;;;;25.10;3.97;;;7.80;99.60;;;;;;6144365;23;20088;-92
2022/01/31 05:57:19;;;;;;;30.90;4.07;;;7.90;98.90;;;;;;6152904;23;20006;-89
2022/01/31 05:59:47;;;;;;;25.73;3.42;;;7.80;98.80;;;;;;6153304;23;20129;-92
2022/01/31 06:02:15;;;;;;;27.23;3.20;;;7.60;99.20;;;;;;6152340;23;20461;-91
2022/01/31 06:04:41;;;;;;;18.83;3.13;;;7.50;99.70;;;;;;6152279;23;20016;-90
2022/01/31 06:13:31;;;;;;;14.35;2.92;;;7.40;99.20;;;;;;6091831;23;20002;-94
2022/01/31 06:15:56;;;;;;;;;;;7.60;98.00;;;;;;6152130;23;20040;-92
2022/01/31 06:18:31;;;;;;;22.85;2.97;;;7.50;98.20;;;;;;6152203;23;19901;-91
2022/01/31 06:21:21;;;;;;;;;;;;;;;;;;;;;
2022/01/31 06:23:53;;;;;;;26.13;3.63;;;7.40;98.40;;;;;;6153208;23;20084;-90
2022/01/31 06:26:22;;;;;;;32.38;3.70;;;7.40;98.70;;;;;;6122138;23;20069;-92
2022/01/31 06:28:55;;;;;;;20.52;3.03;;;7.60;98.00;;;;;;6122389;23;20403;-90
2022/01/31 06:31:27;;;;;;;30.23;3.85;;;7.60;97.30;;;;;;6121887;23;20507;-91
2022/01/31 06:34:05;;;;;;;;;;;;;;;;;;;;;
2022/01/31 06:37:04;;;;;;;;;;;;;;;;;;;;;
2022/01/31 06:39:52;;;;;;;32.42;4.15;;;7.40;98.50;;;;;;6123104;23;20082;-91
2022/01/31 06:42:41;;;;;;;21.50;2.90;;;7.50;98.10;;;;;;6122937;23;20106;-90
2022/01/31 06:45:15;;;;;;;21.40;4.03;;;7.50;97.80;;;;;;6102460;23;20002;-90
2022/01/31 06:47:47;;;;;;;18.17;3.38;;;7.50;97.70;;;;;;6121324;23;20194;-90
2022/01/31 15:41:40;;;;;;;17.95;2.83;;;7.60;99.90;;;;;;6034227;23;20010;-92
2022/01/31 15:44:15;;;;;;;12.18;3.42;;;7.20;99.90;;;;;;6234256;22;20006;-91
2022/01/31 16:18:28;;;;;;;19.60;8.65;;;6.90;99.90;;;;;;5810141;24;20023;-91
2022/01/31 16:20:53;;;;;;;13.60;5.97;;;6.90;99.90;;;;;;5812166;24;20095;-91
2022/01/31 16:23:22;;;;;;;16.55;3.75;;;7.00;99.90;;;;;;5906425;24;20009;-91
2022/01/31 16:26:17;;;;;;;13.70;4.00;;;7.00;99.90;;;;;;5992934;23;20014;-90
2022/01/31 16:46:04;;;;;;;19.17;3.95;;;7.10;99.90;;;;;;6337631;22;20282;-93
2022/01/31 16:48:34;;;;;;;11.90;4.05;;;7.10;99.90;;;;;;6312085;22;20257;-92
2022/01/31 16:51:00;;;;;;;14.50;3.67;;;6.90;99.90;;;;;;6308700;22;20040;-92
2022/01/31 16:53:28;;;;;;;15.88;4.28;;;6.40;99.90;;;;;;6307106;22;20078;-91
2022/01/31 16:56:17;;;;;;;13.98;4.63;;;6.30;99.90;;;;;;6307241;22;20021;-90
2022/01/31 16:58:42;;;;;;;21.55;3.50;;;6.30;99.90;;;;;;6308017;22;20014;-92
2022/01/31 17:01:50;;;;;;;17.10;3.30;;;6.30;99.90;;;;;;6308422;22;20007;-92
2022/01/31 17:05:15;;;;;;;15.73;3.30;;;6.40;99.90;;;;;;6157064;23;20125;-92
2022/01/31 17:12:03;;;;;;;23.98;3.40;;;6.30;99.90;;;;;;6008271;23;20019;-94
2022/01/31 17:15:06;;;;;;;;;;;;;;;;;;;;;
2022/01/31 17:35:45;;;;;;;15.85;4.32;;;6.30;99.90;;;;;;5028193;28;20088;-90
2022/01/31 19:26:44;;;;;;;46.20;24.30;;;;;;;;;;5026005;27;20815;-86
2022/01/31 19:29:10;;;;;;;43.50;24.95;;;;;;;;;;5025119;28;20490;-86
2022/01/31 19:31:36;;;;;;;43.88;21.58;;;;;;;;;;5025604;28;20026;-87
2022/01/31 19:34:03;;;;;;;34.65;13.98;;;;;;;;;;5023985;28;20029;-86
2022/01/31 19:36:29;;;;;;;24.92;10.95;;;;;;;;;;5025899;28;20096;-87
2022/01/31 19:39:00;;;;;;;19.88;8.95;;;;;;;;;;5025122;28;20494;-88
2022/01/31 19:44:12;;;;;;;36.47;12.88;;;9.80;99.90;;;;;;5026607;28;20025;-87
2022/01/31 19:46:38;;;;;;;33.67;11.50;;;6.90;99.90;;;;;;5025403;28;20030;-88
2022/01/31 19:49:03;;;;;;;37.85;17.38;;;9.90;99.90;;;;;;5024618;28;20026;-89
2022/01/31 19:51:31;;;;;;;40.10;20.70;;;6.50;99.90;;;;;;5026562;28;20030;-87
2022/01/31 19:53:57;;;;;;;34.83;18.13;;;6.30;99.90;;;;;;5027357;28;20025;-89
2022/01/31 19:56:26;;;;;;;32.35;17.15;;;6.30;99.90;;;;;;5026828;28;20712;-87
2022/01/31 19:58:52;;;;;;;49.65;21.48;;;;;;;;;;5029469;28;20026;-87
2022/01/31 20:01:19;;;;;;;58.85;24.48;;;6.40;99.90;;;;;;5026664;28;20026;-86
2022/01/31 20:03:46;;;;;;;35.83;13.02;;;9.90;99.90;;;;;;5026259;28;20137;-87
2022/01/31 20:06:12;;;;;;;30.23;11.63;;;3.00;99.90;;;;;;5024519;28;20029;-88
2022/01/31 20:08:40;;;;;;;32.50;12.77;;;6.50;99.90;;;;;;5025481;28;20033;-87
2022/01/31 20:11:13;;;;;;;48.38;18.63;;;6.50;99.90;;;;;;5025090;28;20542;-90
2022/01/31 20:13:47;;;;;;;40.75;19.92;;;;;;;;;;5024429;28;20037;-89
2022/01/31 20:16:23;;;;;;;45.05;19.42;;;10.10;99.90;;;;;;5026147;28;20038;-90
2022/01/31 20:18:50;;;;;;;50.03;18.73;;;5.60;99.90;;;;;;5024115;28;20022;-90
2022/01/31 20:21:17;;;;;;;34.53;15.80;;;10.90;99.90;;;;;;5026013;28;20109;-89
2022/01/31 20:23:43;;;;;;;28.75;12.25;;;3.60;99.90;;;;;;5024973;28;20033;-87
2022/01/31 20:26:10;;;;;;;43.40;14.75;;;9.70;99.90;;;;;;5018027;28;20409;-85
2022/01/31 20:28:36;;;;;;;35.78;15.43;;;6.20;99.90;;;;;;5011718;28;20036;-86
2022/01/31 20:31:08;;;;;;;36.45;12.98;;;3.60;99.90;;;;;;5011151;28;20033;-86
2022/01/31 20:33:34;;;;;;;27.50;10.43;;;9.50;99.90;;;;;;5011478;28;20108;-86
2022/01/31 20:36:02;;;;;;;21.77;8.77;;;10.20;99.90;;;;;;5011179;28;20570;-87
2022/01/31 20:38:31;;;;;;;26.50;8.87;;;2.60;99.90;;;;;;5010534;28;20068;-86
2022/01/31 20:41:14;;;;;;;23.35;9.55;;;10.60;99.90;;;;;;5009850;28;20029;-86
2022/01/31 20:43:42;;;;;;;43.60;15.25;;;6.00;99.90;;;;;;5010788;28;20022;-86
2022/01/31 20:46:10;;;;;;;43.40;13.13;;;3.70;99.90;;;;;;5009674;28;20033;-87
2022/01/31 20:48:35;;;;;;;44.77;14.27;;;8.80;99.90;;;;;;5011799;28;20038;-86
2022/01/31 20:51:01;;;;;;;54.92;20.80;;;5.80;99.90;;;;;;5011249;28;20034;-88
2022/01/31 20:53:27;;;;;;;50.05;18.65;;;;;;;;;;5008498;28;20025;-86
2022/01/31 20:55:53;;;;;;;33.50;11.40;;;3.80;99.90;;;;;;5009492;28;20064;-90
2022/01/31 20:58:19;;;;;;;30.73;10.32;;;;;;;;;;5008253;28;20055;-86
2022/01/31 21:00:50;;;;;;;27.52;10.73;;;3.10;99.90;;;;;;5009202;28;20532;-86
2022/01/31 21:03:19;;;;;;;44.17;10.73;;;5.10;99.90;;;;;;5010013;28;20478;-85
2022/01/31 21:05:46;;;;;;;30.60;9.60;;;4.30;99.90;;;;;;5010160;28;20022;-86
2022/01/31 21:08:12;;;;;;;25.33;8.35;;;;;;;;;;5007034;28;20465;-84
2022/01/31 21:10:38;;;;;;;27.00;7.65;;;1.70;99.90;;;;;;5008070;28;20453;-84
2022/01/31 21:13:08;;;;;;;24.92;7.18;;;4.70;99.90;;;;;;5009594;28;20041;-85
2022/01/31 21:15:34;;;;;;;29.05;7.75;;;3.00;99.90;;;;;;5010021;28;20038;-86
2022/01/31 21:18:01;;;;;;;24.98;8.02;;;8.60;99.90;;;;;;5009607;28;20076;-87
2022/01/31 21:20:27;;;;;;;30.40;9.25;;;2.60;99.90;;;;;;5010508;28;20030;-85
2022/01/31 21:22:53;;;;;;;27.30;8.60;;;;;;;;;;5008745;28;20445;-85
2022/01/31 21:25:20;;;;;;;27.58;8.70;;;;;;;;;;5008553;28;20025;-83
2022/01/31 21:27:48;;;;;;;23.83;7.82;;;;;;;;;;5009535;28;20030;-84
2022/01/31 21:30:20;;;;;;;24.83;7.93;;;5.50;99.90;;;;;;5009029;28;20080;-85
2022/01/31 21:32:47;;;;;;;22.02;9.02;;;9.60;99.90;;;;;;5006113;28;20091;-86
2022/01/31 21:35:13;;;;;;;29.55;9.40;;;;;;;;;;5007135;28;20033;-89
2022/01/31 21:37:39;;;;;;;995.00;314.40;;;5.50;99.90;;;;;;5004086;28;20257;-85
2022/01/31 21:40:06;;;;;;;767.60;226.27;;;4.90;99.90;;;;;;5006774;28;20101;-84
2022/01/31 21:42:33;;;;;;;607.33;157.88;;;5.30;99.90;;;;;;5007440;28;20454;-88
2022/01/31 21:44:59;;;;;;;642.63;212.10;;;4.70;99.90;;;;;;5007595;28;20068;-84
2022/01/31 21:47:26;;;;;;;675.72;219.68;;;5.20;99.90;;;;;;5008287;28;20109;-85
2022/01/31 21:49:52;;;;;;;727.05;230.90;;;5.30;99.90;;;;;;5007101;28;20030;-85
2022/01/31 21:52:18;;;;;;;413.95;135.85;;;5.30;99.90;;;;;;5007839;28;20038;-84
2022/01/31 21:54:43;;;;;;;492.65;159.18;;;5.20;99.90;;;;;;5007336;28;20506;-83
2022/01/31 21:57:10;;;;;;;344.77;113.28;;;3.50;99.90;;;;;;5007467;28;20022;-83
2022/01/31 21:59:40;;;;;;;435.35;152.63;;;4.40;99.90;;;;;;5007310;28;20030;-85
2022/01/31 22:02:07;;;;;;;402.38;143.38;;;5.80;99.90;;;;;;5003843;28;20125;-84
2022/01/31 22:04:34;;;;;;;23.17;6.38;;;5.10;99.90;;;;;;5007658;28;20482;-84
2022/01/31 22:07:00;;;;;;;29.02;9.65;;;5.70;99.90;;;;;;5007896;28;20022;-85
2022/01/31 22:09:29;;;;;;;20.88;8.50;;;5.10;99.90;;;;;;5008941;28;20096;-84
2022/01/31 22:11:57;;;;;;;21.63;6.50;;;;;;;;;;5007707;28;20040;-85
2022/01/31 22:14:23;;;;;;;17.92;5.47;;;6.60;99.90;;;;;;5007999;28;20030;-85
2022/01/31 22:16:49;;;;;;;27.33;7.10;;;5.40;99.90;;;;;;5010024;28;20037;-89
2022/01/31 22:19:15;;;;;;;23.85;7.00;;;4.80;99.90;;;;;;5009153;28;20088;-89
2022/01/31 22:21:43;;;;;;;19.45;5.30;;;;;;;;;;5008484;28;20414;-84
2022/01/31 22:24:09;;;;;;;22.87;6.00;;;2.40;99.90;;;;;;5006757;28;20502;-85
2022/01/31 22:26:34;;;;;;;17.42;5.72;;;6.20;99.90;;;;;;5009418;28;20061;-89
2022/01/31 22:29:00;;;;;;;21.95;6.53;;;;;;;;;;5008024;28;20026;-86
2022/01/31 22:31:32;;;;;;;21.63;5.95;;;7.00;99.90;;;;;;5007843;28;20407;-85
2022/01/31 22:34:01;;;;;;;26.85;6.05;;;;;;;;;;5007651;28;20049;-85
2022/01/31 22:36:28;;;;;;;20.55;6.45;;;5.40;99.90;;;;;;5007796;28;20026;-85
2022/01/31 22:38:54;;;;;;;25.05;6.00;;;;;;;;;;5008570;28;20021;-85
2022/01/31 22:41:20;;;;;;;26.80;5.95;;;7.40;99.90;;;;;;5007916;28;20022;-85
2022/01/31 22:43:47;;;;;;;16.23;6.03;;;;;;;;;;5009885;28;20107;-85
2022/01/31 22:46:13;;;;;;;22.98;5.95;;;2.00;99.90;;;;;;5007424;28;20081;-85
2022/01/31 22:48:38;;;;;;;21.25;6.07;;;6.10;99.90;;;;;;5008269;28;20025;-86
2022/01/31 22:51:04;;;;;;;24.25;6.15;;;6.00;99.90;;;;;;5008191;28;20363;-85
2022/01/31 22:53:30;;;;;;;27.17;6.13;;;;;;;;;;5006727;28;20033;-84
2022/01/31 22:55:56;;;;;;;19.40;5.82;;;6.60;99.90;;;;;;5006668;28;20100;-85
2022/01/31 22:58:22;;;;;;;18.67;5.28;;;5.50;99.90;;;;;;5009635;28;20487;-85
2022/01/31 23:00:48;;;;;;;22.83;6.18;;;;;;;;;;5009706;28;20029;-90
2022/01/31 23:03:14;;;;;;;26.45;6.43;;;;;;;;;;5008361;28;20100;-85
2022/01/31 23:05:40;;;;;;;16.33;6.50;;;7.00;99.90;;;;;;5007566;28;20030;-86
2022/01/31 23:08:05;;;;;;;27.42;6.38;;;6.60;99.90;;;;;;5008440;28;20083;-85
2022/01/31 23:10:31;;;;;;;21.88;6.82;;;6.10;99.90;;;;;;5008460;28;20394;-86
2022/01/31 23:12:56;;;;;;;19.63;5.65;;;4.40;99.90;;;;;;5008285;28;20445;-88
2022/01/31 23:15:39;;;;;;;20.55;6.18;;;5.60;99.90;;;;;;5009573;28;20442;-85
2022/01/31 23:18:15;;;;;;;15.00;4.95;;;6.50;99.90;;;;;;5008045;28;20022;-88
2022/01/31 23:42:42;;;;;;;15.73;5.32;;;4.30;99.90;;;;;;5008412;28;20482;-89
2022/01/31 23:51:11;;;;;;;26.83;5.53;;;6.60;99.90;;;;;;5008016;28;20092;-86
2022/01/31 23:53:31;;;;;;;153.18;46.05;;;5.20;99.90;;;;;;5008132;28;20030;-85
2022/01/31 23:56:14;;;;;;;481.67;159.07;;;4.80;99.90;;;;;;5006044;28;20502;-85
